createdAt,value
2023-07-18T00:01:19.001Z,13.0
2023-07-18T00:04:20.721Z,12.9
2023-07-18T00:06:21.330Z,12.8
2023-07-18T00:09:21.960Z,12.7
2023-07-18T00:11:22.562Z,12.6
2023-07-18T00:14:23.147Z,12.6
2023-07-18T00:16:23.748Z,12.4
2023-07-18T00:19:24.628Z,12.3
2023-07-18T00:21:25.279Z,12.3
2023-07-18T00:24:25.857Z,12.2
2023-07-18T00:26:26.500Z,12.2
2023-07-18T00:29:27.085Z,12.1
2023-07-18T00:31:27.725Z,12.0
2023-07-18T00:37:28.452Z,11.9
2023-07-18T00:39:29.034Z,11.8
2023-07-18T00:41:29.666Z,11.7
2023-07-18T00:44:30.288Z,11.6
2023-07-18T00:47:31.312Z,11.6
2023-07-18T00:49:31.976Z,11.5
2023-07-18T00:52:32.559Z,11.5
2023-07-18T00:54:33.150Z,11.6
2023-07-18T00:57:33.954Z,11.6
2023-07-18T00:59:34.567Z,11.6
2023-07-18T01:02:35.287Z,11.6
2023-07-18T01:04:36.040Z,11.6
2023-07-18T01:07:36.805Z,11.7
2023-07-18T01:09:37.432Z,11.7
2023-07-18T01:12:38.022Z,11.7
2023-07-18T01:17:38.612Z,11.6
2023-07-18T01:19:39.307Z,11.6
2023-07-18T01:22:39.909Z,11.5
2023-07-18T01:25:40.662Z,11.3
2023-07-18T01:27:41.227Z,11.2
2023-07-18T01:30:41.816Z,11.0
2023-07-18T01:32:42.452Z,10.9
2023-07-18T01:35:43.335Z,10.8
2023-07-18T01:37:43.946Z,10.7
2023-07-18T01:40:44.508Z,10.5
2023-07-18T01:42:45.099Z,10.4
2023-07-18T01:45:45.699Z,10.3
2023-07-18T01:47:46.339Z,10.2
2023-07-18T01:50:47.133Z,10.2
2023-07-18T01:52:47.746Z,10.0
2023-07-18T01:57:53.832Z,10.2
2023-07-18T02:00:54.475Z,10.3
2023-07-18T02:02:55.553Z,10.3
2023-07-18T02:05:56.532Z,10.3
2023-07-18T02:07:57.205Z,10.2
2023-07-18T02:10:57.908Z,10.1
2023-07-18T02:13:58.547Z,10.0
2023-07-18T02:15:59.214Z,9.9
2023-07-18T02:20:59.819Z,9.9
2023-07-18T02:24:00.455Z,9.8
2023-07-18T02:26:01.055Z,9.7
2023-07-18T02:29:01.684Z,9.6
2023-07-18T02:31:02.344Z,9.7
2023-07-18T02:34:03.158Z,9.8
2023-07-18T02:39:03.774Z,9.7
2023-07-18T02:41:04.394Z,9.7
2023-07-18T02:44:05.018Z,9.7
2023-07-18T02:46:05.708Z,9.8
2023-07-18T02:49:06.414Z,9.8
2023-07-18T02:51:06.988Z,10.0
2023-07-18T02:54:07.594Z,10.0
2023-07-18T02:57:08.226Z,9.9
2023-07-18T02:59:08.986Z,9.9
2023-07-18T03:02:09.632Z,9.8
2023-07-18T03:04:10.522Z,9.9
2023-07-18T03:07:11.106Z,9.8
2023-07-18T03:09:11.708Z,9.7
2023-07-18T03:12:12.274Z,9.7
2023-07-18T03:14:13.695Z,9.6
2023-07-18T03:19:14.338Z,9.6
2023-07-18T03:22:15.105Z,9.5
2023-07-18T03:24:15.740Z,9.6
2023-07-18T03:27:16.311Z,9.6
2023-07-18T03:29:16.931Z,9.7
2023-07-18T03:32:17.570Z,9.8
2023-07-18T03:35:18.500Z,9.9
2023-07-18T03:37:19.078Z,9.9
2023-07-18T03:40:19.702Z,9.9
2023-07-18T03:42:20.344Z,9.9
2023-07-18T03:45:20.919Z,9.9
2023-07-18T03:47:21.888Z,9.9
2023-07-18T03:50:22.690Z,9.9
2023-07-18T03:52:23.270Z,9.8
2023-07-18T03:55:23.889Z,9.8
2023-07-18T04:00:24.486Z,10.0
2023-07-18T04:02:25.135Z,10.0
2023-07-18T04:05:25.890Z,10.0
2023-07-18T04:07:26.513Z,10.1
2023-07-18T04:10:27.107Z,10.1
2023-07-18T04:12:27.728Z,10.2
2023-07-18T04:15:28.322Z,10.4
2023-07-18T04:17:28.924Z,10.4
2023-07-18T04:20:29.648Z,10.4
2023-07-18T04:23:30.222Z,10.4
2023-07-18T04:25:30.847Z,10.4
2023-07-18T04:28:31.432Z,10.4
2023-07-18T04:30:32.031Z,10.5
2023-07-18T04:33:32.640Z,10.7
2023-07-18T04:35:33.252Z,10.7
2023-07-18T04:40:33.862Z,10.8
2023-07-18T04:43:34.451Z,10.8
2023-07-18T04:45:35.977Z,10.8
2023-07-18T04:48:36.582Z,10.9
2023-07-18T04:50:37.217Z,11.0
2023-07-18T04:53:37.802Z,11.0
2023-07-18T04:56:38.425Z,11.0
2023-07-18T04:58:39.013Z,11.2
2023-07-18T05:01:39.619Z,11.3
2023-07-18T05:03:52.322Z,11.5
2023-07-18T05:05:58.884Z,11.6
2023-07-18T05:08:59.491Z,11.7
2023-07-18T05:11:00.067Z,11.6
2023-07-18T05:14:00.647Z,11.6
2023-07-18T05:16:01.325Z,11.8
2023-07-18T05:21:02.066Z,12.2
2023-07-18T05:24:02.671Z,12.5
2023-07-18T05:27:03.264Z,12.7
2023-07-18T05:29:03.862Z,12.9
2023-07-18T05:32:04.583Z,13.2
2023-07-18T05:34:05.217Z,13.6
2023-07-18T05:37:05.843Z,14.0
2023-07-18T05:39:06.430Z,14.6
2023-07-18T05:42:07.043Z,15.8
2023-07-18T05:44:07.720Z,16.8
2023-07-18T05:47:08.346Z,17.2
2023-07-18T05:49:08.937Z,17.6
2023-07-18T05:52:09.564Z,18.2
2023-07-18T05:54:10.146Z,18.7
2023-07-18T05:57:10.794Z,19.0
2023-07-18T06:02:11.733Z,19.6
2023-07-18T06:05:12.315Z,19.9
2023-07-18T06:07:12.978Z,20.1
2023-07-18T06:10:13.544Z,20.0
2023-07-18T06:12:14.170Z,20.4
2023-07-18T06:15:14.734Z,20.4
2023-07-18T06:17:15.466Z,20.4
2023-07-18T06:20:16.307Z,20.8
2023-07-18T06:22:16.984Z,20.6
2023-07-18T06:25:17.540Z,20.7
2023-07-18T06:27:18.165Z,21.2
2023-07-18T06:30:18.755Z,21.5
2023-07-18T06:32:19.353Z,21.6
2023-07-18T06:35:23.456Z,21.6
2023-07-18T06:37:24.853Z,21.7
2023-07-18T06:42:25.452Z,22.0
2023-07-18T06:45:26.095Z,22.0
2023-07-18T06:47:26.708Z,22.3
2023-07-18T06:50:27.559Z,22.4
2023-07-18T06:53:28.166Z,22.7
2023-07-18T06:55:28.767Z,22.9
2023-07-18T06:58:29.399Z,22.6
2023-07-18T07:00:30.024Z,22.4
2023-07-18T07:03:31.406Z,22.6
2023-07-18T07:05:32.498Z,22.6
2023-07-18T07:08:33.093Z,23.1
2023-07-18T07:10:33.760Z,23.1
2023-07-18T07:13:34.344Z,22.9
2023-07-18T07:15:34.946Z,23.0
2023-07-18T07:18:35.613Z,23.1
2023-07-18T07:23:36.242Z,23.5
2023-07-18T07:25:36.831Z,23.0
2023-07-18T07:28:37.443Z,23.4
2023-07-18T07:31:38.062Z,23.7
2023-07-18T07:33:39.197Z,23.9
2023-07-18T07:36:39.813Z,24.1
2023-07-18T07:38:40.416Z,24.1
2023-07-18T07:41:40.985Z,24.1
2023-07-18T07:43:41.597Z,24.3
2023-07-18T07:46:42.172Z,24.5
2023-07-18T07:48:42.874Z,24.6
2023-07-18T07:51:43.494Z,24.6
2023-07-18T07:53:44.112Z,24.4
2023-07-18T07:56:44.692Z,24.6
2023-07-18T07:58:49.353Z,24.7
2023-07-18T08:04:12.570Z,23.6
2023-07-18T08:07:13.961Z,24.1
2023-07-18T08:09:14.585Z,24.3
2023-07-18T08:12:15.173Z,24.5
2023-07-18T08:14:15.816Z,24.3
2023-07-18T08:17:16.407Z,24.2
2023-07-18T08:19:17.149Z,24.2
2023-07-18T08:22:17.721Z,24.2
2023-07-18T08:24:18.310Z,23.9
2023-07-18T08:27:18.927Z,24.1
2023-07-18T08:29:19.560Z,24.5
2023-07-18T08:32:20.539Z,24.7
2023-07-18T08:34:21.413Z,23.9
2023-07-18T08:37:22.156Z,24.2
2023-07-18T08:39:22.747Z,24.1
2023-07-18T08:44:23.368Z,24.8
2023-07-18T08:47:23.963Z,25.0
2023-07-18T08:50:24.624Z,25.3
2023-07-18T08:52:25.449Z,25.5
2023-07-18T08:55:26.181Z,25.2
2023-07-18T08:57:26.856Z,25.2
2023-07-18T09:00:27.455Z,25.0
2023-07-18T09:02:28.096Z,24.8
2023-07-18T09:05:28.841Z,25.0
2023-07-18T09:07:29.553Z,24.5
2023-07-18T09:10:30.166Z,24.2
2023-07-18T09:12:30.797Z,24.1
2023-07-18T09:15:31.420Z,24.4
2023-07-18T09:17:32.036Z,24.4
2023-07-18T09:20:32.825Z,25.1
2023-07-18T09:25:33.478Z,25.0
2023-07-18T09:28:34.042Z,25.5
2023-07-18T09:30:34.660Z,25.4
2023-07-18T09:33:35.232Z,24.9
2023-07-18T09:35:35.849Z,25.0
2023-07-18T09:38:36.521Z,25.1
2023-07-18T09:40:39.055Z,25.6
2023-07-18T09:43:40.244Z,26.0
2023-07-18T09:45:40.833Z,26.1
2023-07-18T09:50:46.471Z,25.7
2023-07-18T09:53:47.066Z,25.8
2023-07-18T09:55:47.688Z,26.0
2023-07-18T09:58:48.295Z,26.2
2023-07-18T10:00:50.161Z,26.1
2023-07-18T10:05:50.898Z,25.7
2023-07-18T10:08:51.463Z,26.0
2023-07-18T10:10:52.594Z,26.5
2023-07-18T10:13:53.167Z,26.7
2023-07-18T10:16:53.805Z,26.5
2023-07-18T10:18:54.559Z,25.7
2023-07-18T10:21:55.158Z,25.9
2023-07-18T10:23:55.746Z,25.8
2023-07-18T10:26:56.428Z,25.9
2023-07-18T10:28:57.019Z,26.1
2023-07-18T10:31:57.612Z,25.4
2023-07-18T10:36:58.477Z,26.3
2023-07-18T10:38:59.437Z,26.4
2023-07-18T10:42:00.034Z,26.6
2023-07-18T10:47:00.648Z,27.3
2023-07-18T10:49:01.403Z,27.5
2023-07-18T10:52:01.996Z,27.5
2023-07-18T10:54:02.574Z,27.6
2023-07-18T10:57:03.219Z,27.2
2023-07-18T11:00:03.830Z,27.5
2023-07-18T11:02:04.469Z,26.8
2023-07-18T11:05:05.098Z,26.4
2023-07-18T11:07:05.680Z,26.0
2023-07-18T11:10:06.261Z,26.1
2023-07-18T11:12:06.877Z,26.6
2023-07-18T11:15:07.473Z,27.0
2023-07-18T11:17:08.114Z,27.4
2023-07-18T11:20:08.861Z,27.4
2023-07-18T11:22:09.517Z,26.9
2023-07-18T11:27:10.469Z,26.7
2023-07-18T11:30:11.213Z,26.8
2023-07-18T11:33:11.965Z,26.8
2023-07-18T11:35:12.637Z,26.6
2023-07-18T11:38:13.340Z,27.0
2023-07-18T11:40:13.992Z,26.8
2023-07-18T11:43:14.770Z,26.4
2023-07-18T11:45:15.339Z,26.4
2023-07-18T11:48:16.847Z,26.2
2023-07-18T11:50:17.815Z,26.1
2023-07-18T11:53:18.430Z,25.7
2023-07-18T11:55:19.024Z,25.7
2023-07-18T11:58:19.655Z,26.1
2023-07-18T12:00:20.232Z,26.4
2023-07-18T12:03:20.888Z,26.4
2023-07-18T12:08:23.428Z,26.5
2023-07-18T12:10:26.632Z,26.5
2023-07-18T12:13:27.295Z,26.4
2023-07-18T12:15:28.315Z,26.4
2023-07-18T12:18:28.915Z,26.5
2023-07-18T12:20:29.516Z,26.3
2023-07-18T12:23:30.135Z,25.9
2023-07-18T12:26:30.831Z,25.6
2023-07-18T12:28:31.434Z,25.3
2023-07-18T12:31:32.022Z,25.2
2023-07-18T12:33:32.769Z,25.0
2023-07-18T12:36:33.534Z,24.9
2023-07-18T12:38:34.166Z,24.7
2023-07-18T12:41:34.735Z,24.6
2023-07-18T12:43:35.362Z,24.6
2023-07-18T12:48:35.943Z,24.3
2023-07-18T12:51:36.720Z,24.3
2023-07-18T12:53:37.353Z,24.2
2023-07-18T12:56:37.949Z,24.2
2023-07-18T12:59:38.603Z,24.3
2023-07-18T13:01:39.237Z,24.4
2023-07-18T13:04:39.958Z,24.4
2023-07-18T13:06:40.593Z,24.4
2023-07-18T13:09:41.190Z,24.6
2023-07-18T13:11:41.768Z,24.8
2023-07-18T13:14:42.405Z,24.8
2023-07-18T13:16:43.132Z,24.9
2023-07-18T13:19:43.879Z,24.9
2023-07-18T13:21:44.466Z,25.0
2023-07-18T13:24:45.260Z,25.2
2023-07-18T13:29:45.916Z,25.6
2023-07-18T13:31:46.520Z,25.9
2023-07-18T13:34:47.265Z,26.2
2023-07-18T13:36:47.837Z,26.7
2023-07-18T13:39:48.519Z,27.2
2023-07-18T13:41:49.111Z,27.5
2023-07-18T13:44:49.763Z,27.7
2023-07-18T13:46:52.062Z,28.0
2023-07-18T13:49:53.113Z,27.4
2023-07-18T13:52:53.705Z,27.4
2023-07-18T13:54:54.302Z,27.1
2023-07-18T13:57:54.905Z,27.2
2023-07-18T13:59:55.560Z,27.5
2023-07-18T14:02:56.181Z,27.8
2023-07-18T14:04:56.964Z,27.7
2023-07-18T14:09:57.576Z,27.4
2023-07-18T14:12:58.185Z,26.6
2023-07-18T14:14:58.813Z,26.7
2023-07-18T14:17:59.388Z,26.4
2023-07-18T14:20:00.127Z,26.2
2023-07-18T14:23:01.371Z,26.3
2023-07-18T14:25:02.141Z,26.4
2023-07-18T14:28:02.737Z,26.4
2023-07-18T14:30:03.342Z,26.4
2023-07-18T14:33:06.345Z,26.4
2023-07-18T14:35:07.477Z,26.4
2023-07-18T14:38:08.050Z,26.4
2023-07-18T14:41:08.652Z,26.3
2023-07-18T14:43:09.250Z,26.2
2023-07-18T14:46:10.475Z,26.5
2023-07-18T14:51:11.195Z,27.1
2023-07-18T14:53:11.815Z,27.6
2023-07-18T14:56:12.554Z,27.9
2023-07-18T14:58:13.127Z,27.5
2023-07-18T15:01:13.804Z,27.5
2023-07-18T15:03:14.575Z,27.2
2023-07-18T15:06:15.414Z,27.2
2023-07-18T15:08:16.077Z,27.2
2023-07-18T15:11:16.698Z,27.2
2023-07-18T15:13:17.281Z,27.8
2023-07-18T15:16:18.270Z,28.0
2023-07-18T15:19:20.096Z,27.7
2023-07-18T15:21:20.755Z,27.6
2023-07-18T15:24:21.306Z,27.6
2023-07-18T15:26:22.222Z,27.4
2023-07-18T15:31:23.743Z,27.2
2023-07-18T15:34:24.589Z,27.5
2023-07-18T15:36:25.193Z,27.6
2023-07-18T15:39:25.801Z,27.1
2023-07-18T15:41:26.406Z,26.8
2023-07-18T15:44:26.994Z,26.9
2023-07-18T15:46:27.627Z,27.1
2023-07-18T15:49:28.400Z,27.0
2023-07-18T15:52:29.048Z,26.8
2023-07-18T15:54:29.616Z,27.3
2023-07-18T15:57:30.179Z,27.5
2023-07-18T15:59:30.778Z,27.6
2023-07-18T16:02:31.411Z,27.1
2023-07-18T16:04:35.045Z,27.0
2023-07-18T16:07:35.734Z,27.1
2023-07-18T16:12:36.299Z,27.2
2023-07-18T16:14:36.877Z,27.1
2023-07-18T16:17:37.516Z,27.2
2023-07-18T16:22:38.324Z,27.4
2023-07-18T16:24:39.080Z,27.6
2023-07-18T16:27:39.660Z,27.8
2023-07-18T16:29:40.238Z,28.0
2023-07-18T16:32:40.880Z,27.7
2023-07-18T16:34:41.725Z,27.4
2023-07-18T16:37:42.338Z,27.0
2023-07-18T16:39:42.929Z,27.2
2023-07-18T16:42:43.526Z,27.1
2023-07-18T16:45:44.111Z,26.8
2023-07-18T16:47:44.745Z,27.2
2023-07-18T16:52:45.422Z,27.8
2023-07-18T16:55:46.026Z,27.1
2023-07-18T16:57:46.657Z,27.0
2023-07-18T17:00:47.279Z,27.2
2023-07-18T17:02:48.136Z,27.5
2023-07-18T17:05:49.071Z,27.3
2023-07-18T17:07:49.658Z,27.2
2023-07-18T17:10:50.281Z,27.5
2023-07-18T17:12:50.985Z,27.3
2023-07-18T17:15:51.566Z,27.1
2023-07-18T17:17:53.960Z,27.0
2023-07-18T17:20:54.701Z,26.6
2023-07-18T17:23:55.305Z,26.6
2023-07-18T17:25:56.648Z,26.7
2023-07-18T17:28:01.286Z,26.6
2023-07-18T17:34:01.979Z,26.4
2023-07-18T17:36:02.542Z,26.2
2023-07-18T17:39:03.192Z,26.0
2023-07-18T17:41:03.830Z,25.7
2023-07-18T17:44:04.446Z,25.5
2023-07-18T17:46:05.238Z,25.4
2023-07-18T17:49:05.963Z,25.2
2023-07-18T17:51:06.558Z,25.0
2023-07-18T17:54:07.187Z,24.8
2023-07-18T17:56:07.779Z,24.8
2023-07-18T17:59:08.422Z,24.7
2023-07-18T18:01:09.009Z,24.7
2023-07-18T18:04:09.685Z,24.6
2023-07-18T18:06:10.402Z,24.6
2023-07-18T18:09:11.009Z,24.5
2023-07-18T18:14:11.603Z,24.4
2023-07-18T18:17:12.211Z,24.2
2023-07-18T18:19:12.801Z,24.2
2023-07-18T18:22:13.376Z,24.1
2023-07-18T18:24:13.978Z,24.1
2023-07-18T18:27:14.828Z,24.0
2023-07-18T18:29:15.403Z,23.9
2023-07-18T18:32:15.976Z,23.8
2023-07-18T18:34:16.591Z,23.7
2023-07-18T18:37:17.199Z,23.6
2023-07-18T18:39:17.882Z,23.6
2023-07-18T18:42:18.459Z,23.4
2023-07-18T18:45:19.062Z,23.3
2023-07-18T18:47:19.669Z,23.3
2023-07-18T18:50:20.246Z,23.2
2023-07-18T18:55:22.026Z,23.1
2023-07-18T18:57:30.820Z,23.0
2023-07-18T19:00:31.414Z,23.0
2023-07-18T19:02:32.096Z,22.9
2023-07-18T19:05:33.029Z,22.8
2023-07-18T19:07:33.611Z,22.8
2023-07-18T19:10:34.243Z,22.7
2023-07-18T19:12:34.856Z,22.7
2023-07-18T19:15:35.492Z,22.5
2023-07-18T19:17:36.159Z,22.4
2023-07-18T19:20:37.368Z,22.4
2023-07-18T19:22:37.958Z,22.2
2023-07-18T19:25:38.696Z,21.9
2023-07-18T19:27:39.307Z,21.7
2023-07-18T19:30:40.034Z,21.6
2023-07-18T19:35:41.062Z,21.2
2023-07-18T19:37:41.668Z,21.2
2023-07-18T19:40:42.269Z,21.0
2023-07-18T19:43:42.853Z,20.8
2023-07-18T19:45:43.444Z,20.7
2023-07-18T19:48:44.053Z,20.6
2023-07-18T19:50:44.654Z,20.4
2023-07-18T19:53:45.240Z,20.2
2023-07-18T19:55:45.866Z,20.1
2023-07-18T19:58:46.469Z,20.0
2023-07-18T20:00:47.085Z,20.0
2023-07-18T20:03:58.204Z,20.0
2023-07-18T20:06:01.133Z,20.1
2023-07-18T20:09:01.786Z,19.8
2023-07-18T20:11:02.432Z,19.5
2023-07-18T20:16:03.054Z,19.2
2023-07-18T20:19:03.729Z,18.7
2023-07-18T20:21:04.423Z,18.5
2023-07-18T20:24:05.037Z,18.3
2023-07-18T20:26:05.649Z,18.3
2023-07-18T20:29:06.255Z,18.2
2023-07-18T20:31:06.893Z,18.2
2023-07-18T20:34:07.603Z,18.5
2023-07-18T20:36:08.194Z,18.1
2023-07-18T20:39:08.774Z,17.7
2023-07-18T20:41:10.227Z,17.7
2023-07-18T20:44:10.990Z,17.7
2023-07-18T20:46:11.793Z,17.3
2023-07-18T20:49:12.696Z,17.0
2023-07-18T20:52:13.339Z,16.9
2023-07-18T20:57:13.925Z,17.0
2023-07-18T20:59:14.506Z,17.2
2023-07-18T21:02:15.132Z,17.4
2023-07-18T21:04:15.745Z,17.4
2023-07-18T21:07:16.563Z,17.3
2023-07-18T21:09:17.157Z,17.2
2023-07-18T21:12:17.778Z,17.2
2023-07-18T21:14:18.369Z,17.2
2023-07-18T21:17:19.032Z,17.2
2023-07-18T21:19:19.790Z,17.2
2023-07-18T21:22:20.372Z,17.1
2023-07-18T21:25:20.965Z,16.9
2023-07-18T21:27:21.592Z,16.6
2023-07-18T21:30:22.165Z,16.5
2023-07-18T21:32:22.902Z,16.6
2023-07-18T21:37:23.613Z,16.6
2023-07-18T21:40:24.226Z,16.3
2023-07-18T21:42:24.808Z,16.4
2023-07-18T21:45:25.400Z,16.4
2023-07-18T21:47:26.063Z,16.4
2023-07-18T21:50:26.696Z,16.3
2023-07-18T21:52:27.689Z,16.2
2023-07-18T21:55:28.266Z,16.2
2023-07-18T21:58:28.894Z,16.3
2023-07-18T22:00:29.507Z,16.7
2023-07-18T22:03:30.147Z,16.6
2023-07-18T22:05:30.809Z,16.3
2023-07-18T22:08:31.406Z,16.2
2023-07-18T22:10:32.010Z,15.8
2023-07-18T22:13:32.620Z,15.7
2023-07-18T22:18:33.351Z,15.6
2023-07-18T22:20:34.222Z,15.5
2023-07-18T22:23:34.827Z,15.4
2023-07-18T22:25:35.432Z,15.3
2023-07-18T22:28:36.016Z,15.3
2023-07-18T22:30:36.611Z,15.4
2023-07-18T22:33:37.282Z,15.5
2023-07-18T22:35:37.889Z,15.6
2023-07-18T22:38:38.522Z,15.6
2023-07-18T22:43:39.364Z,15.6
2023-07-18T22:46:40.022Z,15.6
2023-07-18T22:48:40.727Z,15.5
2023-07-18T22:51:41.295Z,15.4
2023-07-18T22:53:41.917Z,15.3
2023-07-18T22:58:42.512Z,15.0
2023-07-18T23:01:43.180Z,15.0
2023-07-18T23:03:43.800Z,14.9
2023-07-18T23:06:44.483Z,14.8
2023-07-18T23:08:45.224Z,14.7
2023-07-18T23:11:45.801Z,14.8
2023-07-18T23:13:46.392Z,14.8
2023-07-18T23:16:47.040Z,14.8
2023-07-18T23:18:47.757Z,14.8
2023-07-18T23:21:48.359Z,14.8
2023-07-18T23:23:48.990Z,14.7
2023-07-18T23:26:49.575Z,14.6
2023-07-18T23:29:50.167Z,14.5
2023-07-18T23:31:50.783Z,14.5
2023-07-18T23:34:51.397Z,14.4
2023-07-18T23:39:52.082Z,14.4
2023-07-18T23:41:52.686Z,14.4
2023-07-18T23:44:53.301Z,14.2
2023-07-18T23:46:53.879Z,14.1
2023-07-18T23:49:54.512Z,14.1
2023-07-18T23:51:55.080Z,14.0
2023-07-18T23:54:55.707Z,14.1
2023-07-18T23:56:56.296Z,14.1
2023-07-18T23:59:56.927Z,14.1
